createdAt,value
2023-08-31T00:01:05.453Z,16.16
2023-08-31T00:03:35.883Z,16.22
2023-08-31T00:06:08.854Z,16.26
2023-08-31T00:08:39.290Z,16.29
2023-08-31T00:11:09.468Z,16.29
2023-08-31T00:13:42.353Z,16.31
2023-08-31T00:16:13.885Z,16.35
2023-08-31T00:18:46.423Z,16.35
2023-08-31T00:21:16.572Z,16.32
2023-08-31T00:23:46.870Z,16.31
2023-08-31T00:26:17.179Z,16.32
2023-08-31T00:28:52.959Z,16.32
2023-08-31T00:31:23.183Z,16.33
2023-08-31T00:33:53.365Z,16.35
2023-08-31T00:36:24.341Z,16.39
2023-08-31T00:38:54.557Z,16.38
2023-08-31T00:41:26.253Z,16.36
2023-08-31T00:43:59.835Z,16.38
2023-08-31T00:46:30.841Z,16.37
2023-08-31T00:49:01.044Z,16.37
2023-08-31T00:51:31.358Z,16.37
2023-08-31T00:54:01.664Z,16.36
2023-08-31T00:56:31.829Z,16.34
2023-08-31T00:59:04.631Z,16.34
2023-08-31T01:01:41.879Z,16.36
2023-08-31T01:04:20.465Z,16.36
2023-08-31T01:06:59.408Z,16.35
2023-08-31T01:09:38.564Z,16.35
2023-08-31T01:12:13.163Z,16.36
2023-08-31T01:14:49.754Z,16.37
2023-08-31T01:17:21.655Z,16.36
2023-08-31T01:19:56.461Z,16.32
2023-08-31T01:22:34.806Z,16.29
2023-08-31T01:25:10.610Z,16.27
2023-08-31T01:27:41.983Z,16.25
2023-08-31T01:30:12.588Z,16.23
2023-08-31T01:32:48.327Z,16.20
2023-08-31T01:35:21.196Z,16.14
2023-08-31T01:37:57.516Z,16.12
2023-08-31T01:40:38.003Z,16.08
2023-08-31T01:43:11.301Z,16.03
2023-08-31T01:45:43.147Z,16.01
2023-08-31T01:48:18.009Z,15.99
2023-08-31T01:50:48.053Z,15.94
2023-08-31T01:53:18.105Z,15.93
2023-08-31T01:55:50.847Z,15.97
2023-08-31T01:58:20.882Z,15.99
2023-08-31T02:00:51.519Z,16.03
2023-08-31T02:03:21.984Z,16.08
2023-08-31T02:05:52.134Z,16.10
2023-08-31T02:08:22.242Z,16.12
2023-08-31T02:10:55.625Z,16.14
2023-08-31T02:13:28.217Z,16.13
2023-08-31T02:15:58.453Z,16.12
2023-08-31T02:18:31.053Z,16.10
2023-08-31T02:21:01.488Z,16.09
2023-08-31T02:23:31.560Z,16.09
2023-08-31T02:26:04.218Z,16.08
2023-08-31T02:28:34.256Z,16.09
2023-08-31T02:31:06.672Z,16.08
2023-08-31T02:33:37.537Z,16.06
2023-08-31T02:36:07.919Z,16.02
2023-08-31T02:38:38.531Z,16.02
2023-08-31T02:41:12.933Z,16.01
2023-08-31T02:43:43.399Z,16.00
2023-08-31T02:46:14.236Z,15.98
2023-08-31T02:48:44.411Z,15.94
2023-08-31T02:51:14.557Z,15.92
2023-08-31T02:53:44.637Z,15.90
2023-08-31T02:56:17.365Z,15.86
2023-08-31T02:58:47.429Z,15.84
2023-08-31T03:01:18.323Z,15.83
2023-08-31T03:03:51.400Z,15.81
2023-08-31T03:06:22.800Z,15.81
2023-08-31T03:08:52.922Z,15.79
2023-08-31T03:11:25.866Z,15.77
2023-08-31T03:13:56.007Z,15.75
2023-08-31T03:16:26.137Z,15.74
2023-08-31T03:18:56.249Z,15.73
2023-08-31T03:21:26.831Z,15.70
2023-08-31T03:23:56.913Z,15.69
2023-08-31T03:26:29.639Z,15.67
2023-08-31T03:29:00.116Z,15.70
2023-08-31T03:31:31.146Z,15.71
2023-08-31T03:34:01.319Z,15.73
2023-08-31T03:36:31.556Z,15.72
2023-08-31T03:39:01.805Z,15.70
2023-08-31T03:41:36.786Z,15.66
2023-08-31T03:44:07.416Z,15.61
2023-08-31T03:46:37.595Z,15.57
2023-08-31T03:49:07.911Z,15.51
2023-08-31T03:51:38.067Z,15.44
2023-08-31T03:54:08.381Z,15.44
2023-08-31T03:56:41.630Z,15.44
2023-08-31T03:59:11.813Z,15.40
2023-08-31T04:01:42.275Z,15.41
2023-08-31T04:04:15.184Z,15.42
2023-08-31T04:06:45.467Z,15.43
2023-08-31T04:09:15.753Z,15.45
2023-08-31T04:11:48.538Z,15.45
2023-08-31T04:14:19.470Z,15.45
2023-08-31T04:16:51.532Z,15.44
2023-08-31T04:19:21.811Z,15.43
2023-08-31T04:21:51.933Z,15.42
2023-08-31T04:24:22.021Z,15.40
2023-08-31T04:26:54.614Z,15.39
2023-08-31T04:29:24.619Z,15.39
2023-08-31T04:31:55.014Z,15.42
2023-08-31T04:34:25.078Z,15.42
2023-08-31T04:36:55.247Z,15.42
2023-08-31T04:39:25.326Z,15.40
2023-08-31T04:41:57.969Z,15.41
2023-08-31T04:44:28.080Z,15.42
2023-08-31T04:46:58.557Z,15.42
2023-08-31T04:49:28.652Z,15.41
2023-08-31T04:52:00.375Z,15.40
2023-08-31T04:54:30.623Z,15.37
2023-08-31T04:57:04.671Z,15.37
2023-08-31T04:59:34.794Z,15.36
2023-08-31T05:02:05.000Z,15.36
2023-08-31T05:04:35.234Z,15.39
2023-08-31T05:07:05.345Z,15.40
2023-08-31T05:09:36.387Z,15.41
2023-08-31T05:12:12.373Z,15.43
2023-08-31T05:14:42.816Z,15.48
2023-08-31T05:17:13.096Z,15.51
2023-08-31T05:19:43.351Z,15.54
2023-08-31T05:22:13.553Z,15.56
2023-08-31T05:24:43.983Z,15.57
2023-08-31T05:27:16.746Z,15.57
2023-08-31T05:29:46.978Z,15.62
2023-08-31T05:32:16.982Z,15.71
2023-08-31T05:34:47.124Z,15.84
2023-08-31T05:37:20.035Z,15.91
2023-08-31T05:39:52.158Z,15.99
2023-08-31T05:42:25.133Z,16.10
2023-08-31T05:44:55.319Z,16.19
2023-08-31T05:47:25.440Z,16.16
2023-08-31T05:49:55.654Z,16.14
2023-08-31T05:52:26.034Z,16.12
2023-08-31T05:54:56.249Z,16.09
2023-08-31T05:57:30.372Z,16.04
2023-08-31T06:00:00.411Z,16.01
2023-08-31T06:02:30.660Z,16.00
2023-08-31T06:05:00.940Z,16.00
2023-08-31T06:07:31.489Z,15.98
2023-08-31T06:10:01.682Z,15.94
2023-08-31T06:12:34.456Z,15.90
2023-08-31T06:15:04.467Z,15.89
2023-08-31T06:17:36.357Z,15.86
2023-08-31T06:20:07.882Z,15.88
2023-08-31T06:22:38.091Z,15.88
2023-08-31T06:25:09.286Z,15.92
2023-08-31T06:27:41.963Z,15.96
2023-08-31T06:30:16.989Z,16.01
2023-08-31T06:32:48.054Z,16.05
2023-08-31T06:35:19.525Z,16.08
2023-08-31T06:37:51.808Z,16.11
2023-08-31T06:40:21.963Z,16.15
2023-08-31T06:42:54.613Z,16.15
2023-08-31T06:45:24.802Z,16.14
2023-08-31T06:47:54.914Z,16.14
2023-08-31T06:50:25.131Z,16.11
2023-08-31T06:52:55.212Z,16.11
2023-08-31T06:55:25.351Z,16.14
2023-08-31T06:57:58.170Z,16.16
2023-08-31T07:00:28.228Z,16.19
2023-08-31T07:02:58.649Z,16.20
2023-08-31T07:05:30.949Z,16.24
2023-08-31T07:08:01.251Z,16.36
2023-08-31T07:10:31.587Z,16.51
2023-08-31T07:13:04.865Z,16.65
2023-08-31T07:15:35.238Z,16.65
2023-08-31T07:18:05.467Z,16.63
2023-08-31T07:20:35.564Z,16.59
2023-08-31T07:23:05.724Z,16.61
2023-08-31T07:25:35.745Z,16.62
2023-08-31T07:28:08.932Z,16.66
2023-08-31T07:30:39.096Z,16.69
2023-08-31T07:33:24.564Z,16.70
2023-08-31T07:35:58.758Z,16.67
2023-08-31T07:38:30.817Z,16.64
2023-08-31T07:41:01.235Z,16.60
2023-08-31T07:43:33.974Z,16.61
2023-08-31T07:46:04.773Z,16.63
2023-08-31T07:48:34.897Z,16.66
2023-08-31T07:51:04.964Z,16.72
2023-08-31T07:53:34.953Z,16.75
2023-08-31T07:56:05.099Z,16.79
2023-08-31T07:58:37.776Z,16.80
2023-08-31T08:01:07.922Z,16.85
2023-08-31T08:03:38.060Z,16.91
2023-08-31T08:06:08.109Z,16.98
2023-08-31T08:08:38.610Z,17.11
2023-08-31T08:11:09.151Z,17.32
2023-08-31T08:13:41.883Z,17.50
2023-08-31T08:16:11.974Z,17.58
2023-08-31T08:18:42.188Z,17.59
2023-08-31T08:21:12.253Z,17.74
2023-08-31T08:23:42.771Z,18.02
2023-08-31T08:26:12.938Z,18.16
2023-08-31T08:28:45.693Z,18.23
2023-08-31T08:31:15.869Z,18.40
2023-08-31T08:33:45.957Z,18.50
2023-08-31T08:36:17.344Z,18.60
2023-08-31T08:38:47.417Z,18.65
2023-08-31T08:41:20.474Z,18.67
2023-08-31T08:43:55.281Z,18.90
2023-08-31T08:46:26.677Z,19.41
2023-08-31T08:48:58.337Z,19.92
2023-08-31T08:51:28.877Z,20.13
2023-08-31T08:54:00.416Z,20.18
2023-08-31T08:56:30.472Z,20.06
2023-08-31T08:59:03.241Z,20.13
2023-08-31T09:01:33.634Z,20.06
2023-08-31T09:04:03.713Z,20.46
2023-08-31T09:06:33.809Z,20.80
2023-08-31T09:09:04.192Z,20.90
2023-08-31T09:11:34.268Z,20.69
2023-08-31T09:14:18.031Z,20.47
2023-08-31T09:16:50.438Z,20.55
2023-08-31T09:19:24.462Z,20.50
2023-08-31T09:21:56.222Z,20.44
2023-08-31T09:24:27.116Z,20.45
2023-08-31T09:26:59.094Z,20.45
2023-08-31T09:29:32.062Z,20.42
2023-08-31T09:32:02.332Z,20.59
2023-08-31T09:34:37.463Z,21.13
2023-08-31T09:37:10.974Z,21.78
2023-08-31T09:39:41.396Z,22.41
2023-08-31T09:42:11.740Z,23.13
2023-08-31T09:44:48.384Z,23.76
2023-08-31T09:47:19.337Z,24.06
2023-08-31T09:49:50.129Z,23.77
2023-08-31T09:52:21.852Z,23.22
2023-08-31T09:54:54.552Z,22.51
2023-08-31T09:57:36.080Z,21.86
2023-08-31T10:00:19.806Z,21.25
2023-08-31T10:02:50.550Z,20.77
2023-08-31T10:05:21.558Z,20.54
2023-08-31T10:07:53.887Z,20.53
2023-08-31T10:10:25.981Z,20.55
2023-08-31T10:12:57.215Z,20.51
2023-08-31T10:15:35.625Z,20.48
2023-08-31T10:18:07.057Z,20.88
2023-08-31T10:20:38.540Z,21.59
2023-08-31T10:23:10.424Z,22.09
2023-08-31T10:26:04.984Z,22.94
2023-08-31T10:28:44.192Z,23.92
2023-08-31T10:31:23.856Z,24.80
2023-08-31T10:34:01.532Z,24.97
2023-08-31T10:36:42.627Z,25.16
2023-08-31T10:39:17.344Z,25.37
2023-08-31T10:41:56.934Z,25.48
2023-08-31T10:44:28.303Z,25.78
2023-08-31T10:47:07.072Z,26.02
2023-08-31T10:49:38.460Z,26.19
2023-08-31T10:54:59.482Z,24.92
2023-08-31T10:57:34.065Z,23.98
2023-08-31T11:00:04.544Z,23.04
2023-08-31T11:02:41.850Z,22.05
2023-08-31T11:05:15.440Z,21.24
2023-08-31T11:07:48.125Z,20.65
2023-08-31T11:10:21.118Z,20.15
2023-08-31T11:12:53.666Z,19.71
2023-08-31T11:15:25.468Z,19.27
2023-08-31T11:17:59.562Z,18.90
2023-08-31T11:20:31.733Z,18.56
2023-08-31T11:23:02.324Z,18.37
2023-08-31T11:25:35.144Z,18.27
2023-08-31T11:28:07.038Z,18.17
2023-08-31T11:30:38.166Z,18.19
2023-08-31T11:33:12.757Z,18.41
2023-08-31T11:35:47.124Z,18.84
2023-08-31T11:38:17.329Z,19.42
2023-08-31T11:40:47.546Z,20.16
2023-08-31T11:43:21.076Z,20.88
2023-08-31T11:45:51.862Z,21.52
2023-08-31T11:48:24.878Z,22.15
2023-08-31T11:50:55.993Z,22.61
2023-08-31T11:53:26.216Z,23.01
2023-08-31T11:55:56.803Z,23.32
2023-08-31T11:58:27.265Z,23.54
2023-08-31T12:01:01.863Z,23.75
2023-08-31T12:03:50.704Z,24.14
2023-08-31T12:06:22.196Z,24.74
2023-08-31T12:08:52.956Z,25.07
2023-08-31T12:11:23.863Z,25.28
2023-08-31T12:13:54.692Z,24.66
2023-08-31T12:16:24.907Z,23.88
2023-08-31T12:19:02.888Z,23.16
2023-08-31T12:21:33.036Z,22.64
2023-08-31T12:24:04.871Z,22.01
2023-08-31T12:26:35.436Z,21.34
2023-08-31T12:29:06.068Z,20.67
2023-08-31T12:31:36.434Z,20.09
2023-08-31T12:34:09.876Z,19.61
2023-08-31T12:36:42.365Z,19.30
2023-08-31T12:39:13.491Z,19.39
2023-08-31T12:41:44.331Z,19.72
2023-08-31T12:44:14.489Z,20.30
2023-08-31T12:46:44.645Z,20.72
2023-08-31T12:49:17.622Z,20.84
2023-08-31T12:51:47.756Z,20.75
2023-08-31T12:54:17.898Z,20.56
2023-08-31T12:56:48.119Z,20.29
2023-08-31T12:59:18.275Z,20.03
2023-08-31T13:01:48.446Z,19.78
2023-08-31T13:04:22.889Z,19.54
2023-08-31T13:06:53.205Z,19.60
2023-08-31T13:09:23.279Z,19.66
2023-08-31T13:11:54.048Z,19.83
2023-08-31T13:14:24.409Z,19.91
2023-08-31T13:16:54.850Z,19.96
2023-08-31T13:19:29.782Z,20.21
2023-08-31T13:22:00.210Z,20.44
2023-08-31T13:24:30.457Z,20.70
2023-08-31T13:27:01.286Z,20.85
2023-08-31T13:29:31.559Z,20.81
2023-08-31T13:32:01.680Z,20.75
2023-08-31T13:34:34.467Z,20.77
2023-08-31T13:37:05.348Z,20.79
2023-08-31T13:39:38.650Z,20.78
2023-08-31T13:42:09.076Z,20.89
2023-08-31T13:44:39.459Z,20.90
2023-08-31T13:47:09.688Z,20.69
2023-08-31T13:49:42.400Z,20.14
2023-08-31T13:52:13.262Z,19.75
2023-08-31T13:54:43.717Z,19.53
2023-08-31T13:57:18.640Z,19.39
2023-08-31T13:59:48.864Z,19.29
2023-08-31T14:02:18.967Z,19.64
2023-08-31T14:04:58.407Z,20.37
2023-08-31T14:07:29.138Z,20.51
2023-08-31T14:09:59.324Z,20.64
2023-08-31T14:12:29.440Z,20.56
2023-08-31T14:14:59.557Z,20.22
2023-08-31T14:17:29.783Z,19.88
2023-08-31T14:20:07.051Z,19.45
2023-08-31T14:22:37.657Z,18.96
2023-08-31T14:25:09.067Z,18.62
2023-08-31T14:27:39.134Z,18.45
2023-08-31T14:30:10.621Z,18.28
2023-08-31T14:32:40.869Z,18.19
2023-08-31T14:35:13.929Z,18.24
2023-08-31T14:37:45.188Z,18.28
2023-08-31T14:40:16.006Z,18.36
2023-08-31T14:42:46.106Z,18.35
2023-08-31T14:45:16.186Z,18.32
2023-08-31T14:47:46.432Z,18.35
2023-08-31T14:50:19.186Z,18.31
2023-08-31T14:52:49.370Z,18.28
2023-08-31T14:55:19.624Z,18.24
2023-08-31T14:57:49.731Z,18.16
2023-08-31T15:00:21.028Z,18.20
2023-08-31T15:02:51.581Z,18.22
2023-08-31T15:05:26.663Z,18.23
2023-08-31T15:07:56.733Z,18.26
2023-08-31T15:10:27.225Z,18.34
2023-08-31T15:12:59.904Z,18.40
2023-08-31T15:15:30.578Z,18.44
2023-08-31T15:18:00.759Z,18.49
2023-08-31T15:20:33.511Z,18.50
2023-08-31T15:23:03.922Z,18.48
2023-08-31T15:25:34.268Z,18.43
2023-08-31T15:28:06.980Z,18.40
2023-08-31T15:30:38.100Z,18.35
2023-08-31T15:33:09.039Z,18.39
2023-08-31T15:35:41.882Z,18.51
2023-08-31T15:38:12.379Z,18.59
2023-08-31T15:40:42.613Z,18.67
2023-08-31T15:43:12.696Z,18.72
2023-08-31T15:45:42.766Z,18.73
2023-08-31T15:48:12.997Z,18.67
2023-08-31T15:50:45.919Z,18.60
2023-08-31T15:53:16.030Z,18.50
2023-08-31T15:55:50.099Z,18.42
2023-08-31T15:58:21.702Z,18.42
2023-08-31T16:00:51.820Z,18.49
2023-08-31T16:03:22.032Z,18.54
2023-08-31T16:05:55.338Z,18.56
2023-08-31T16:08:25.431Z,18.54
2023-08-31T16:10:55.586Z,18.50
2023-08-31T16:13:25.770Z,18.45
2023-08-31T16:15:56.849Z,18.40
2023-08-31T16:18:27.233Z,18.35
2023-08-31T16:21:02.924Z,18.27
2023-08-31T16:23:33.189Z,18.21
2023-08-31T16:26:03.815Z,18.11
2023-08-31T16:28:34.186Z,17.99
2023-08-31T16:31:04.966Z,17.87
2023-08-31T16:33:35.388Z,17.75
2023-08-31T16:36:08.665Z,17.60
2023-08-31T16:38:38.808Z,17.47
2023-08-31T16:41:09.136Z,17.40
2023-08-31T16:43:39.335Z,17.34
2023-08-31T16:46:09.459Z,17.30
2023-08-31T16:48:39.749Z,17.22
2023-08-31T16:51:12.525Z,17.21
2023-08-31T16:53:42.687Z,17.15
2023-08-31T16:56:13.533Z,17.11
2023-08-31T16:58:43.618Z,17.03
2023-08-31T17:01:13.796Z,16.98
2023-08-31T17:03:44.172Z,16.93
2023-08-31T17:06:17.000Z,16.87
2023-08-31T17:08:47.073Z,16.83
2023-08-31T17:11:17.142Z,16.81
2023-08-31T17:13:47.213Z,16.81
2023-08-31T17:16:17.376Z,16.82
2023-08-31T17:18:47.460Z,16.75
2023-08-31T17:21:20.278Z,16.70
2023-08-31T17:23:50.456Z,16.65
2023-08-31T17:26:24.817Z,16.62
2023-08-31T17:28:55.047Z,16.58
2023-08-31T17:31:25.384Z,16.55
2023-08-31T17:33:58.716Z,16.52
2023-08-31T17:36:31.621Z,16.44
2023-08-31T17:39:01.639Z,16.35
2023-08-31T17:41:31.813Z,16.25
2023-08-31T17:44:01.907Z,16.19
2023-08-31T17:46:32.055Z,16.10
2023-08-31T17:49:02.370Z,16.00
2023-08-31T17:51:35.120Z,15.93
2023-08-31T17:54:05.268Z,15.88
2023-08-31T17:56:35.421Z,15.83
2023-08-31T17:59:06.072Z,15.76
2023-08-31T18:01:36.791Z,15.72
2023-08-31T18:04:07.563Z,15.68
2023-08-31T18:06:40.270Z,15.68
2023-08-31T18:09:10.526Z,15.69
2023-08-31T18:11:41.137Z,15.71
2023-08-31T18:14:11.248Z,15.76
2023-08-31T18:16:41.400Z,15.75
2023-08-31T18:19:11.547Z,15.77
2023-08-31T18:21:44.302Z,15.76
2023-08-31T18:24:14.502Z,15.77
2023-08-31T18:26:45.976Z,15.74
2023-08-31T18:29:16.056Z,15.68
2023-08-31T18:31:46.165Z,15.64
2023-08-31T18:34:16.385Z,15.60
2023-08-31T18:36:49.149Z,15.59
2023-08-31T18:39:19.519Z,15.57
2023-08-31T18:41:49.539Z,15.56
2023-08-31T18:44:21.011Z,15.55
2023-08-31T18:46:51.192Z,15.52
2023-08-31T18:49:21.415Z,15.51
2023-08-31T18:51:54.114Z,15.49
2023-08-31T18:54:24.275Z,15.48
2023-08-31T18:56:54.414Z,15.47
2023-08-31T18:59:24.507Z,15.43
2023-08-31T19:01:54.671Z,15.37
2023-08-31T19:04:24.752Z,15.30
2023-08-31T19:06:57.540Z,15.22
2023-08-31T19:09:30.643Z,15.14
2023-08-31T19:12:00.884Z,15.07
2023-08-31T19:14:30.983Z,15.02
2023-08-31T19:17:01.076Z,14.97
2023-08-31T19:19:31.323Z,14.91
2023-08-31T19:22:04.118Z,14.87
2023-08-31T19:24:34.258Z,14.83
2023-08-31T19:27:04.531Z,14.81
2023-08-31T19:29:34.637Z,14.78
2023-08-31T19:32:04.945Z,14.77
2023-08-31T19:34:36.555Z,14.75
2023-08-31T19:37:09.376Z,14.76
2023-08-31T19:39:39.516Z,14.74
2023-08-31T19:42:11.104Z,14.70
2023-08-31T19:44:41.256Z,14.67
2023-08-31T19:47:15.405Z,14.63
2023-08-31T19:49:45.830Z,14.59
2023-08-31T19:52:18.515Z,14.55
2023-08-31T19:54:48.658Z,14.52
2023-08-31T19:57:18.756Z,14.47
2023-08-31T19:59:48.869Z,14.42
2023-08-31T20:02:18.996Z,14.35
2023-08-31T20:04:49.113Z,14.32
2023-08-31T20:07:21.892Z,14.28
2023-08-31T20:09:52.316Z,14.27
2023-08-31T20:12:22.515Z,14.24
2023-08-31T20:14:53.304Z,14.25
2023-08-31T20:17:23.443Z,14.24
2023-08-31T20:19:57.264Z,14.25
2023-08-31T20:22:30.083Z,14.25
2023-08-31T20:25:01.228Z,14.24
2023-08-31T20:27:31.423Z,14.25
2023-08-31T20:30:01.476Z,14.24
2023-08-31T20:32:32.084Z,14.23
2023-08-31T20:35:02.334Z,14.23
2023-08-31T20:37:36.098Z,14.21
2023-08-31T20:40:09.844Z,14.15
2023-08-31T20:42:40.126Z,14.13
2023-08-31T20:45:14.472Z,14.12
2023-08-31T20:47:46.104Z,14.09
2023-08-31T20:50:16.764Z,14.09
2023-08-31T20:52:51.284Z,14.09
2023-08-31T20:55:21.462Z,14.07
2023-08-31T20:57:51.581Z,14.05
2023-08-31T21:00:21.899Z,14.04
2023-08-31T21:02:52.664Z,14.02
2023-08-31T21:05:23.119Z,14.02
2023-08-31T21:07:55.930Z,14.02
2023-08-31T21:10:25.998Z,14.04
2023-08-31T21:12:56.316Z,14.05
2023-08-31T21:15:26.476Z,14.03
2023-08-31T21:17:56.805Z,14.04
2023-08-31T21:20:28.065Z,14.03
2023-08-31T21:23:01.190Z,14.00
2023-08-31T21:25:31.329Z,13.97
2023-08-31T21:28:01.568Z,13.92
2023-08-31T21:30:36.490Z,13.93
2023-08-31T21:33:07.452Z,13.91
2023-08-31T21:35:39.646Z,13.90
2023-08-31T21:38:17.128Z,13.90
2023-08-31T21:40:48.731Z,13.89
2023-08-31T21:43:20.753Z,13.88
2023-08-31T21:45:50.848Z,13.85
2023-08-31T21:48:20.953Z,13.83
2023-08-31T21:50:51.402Z,13.81
2023-08-31T21:53:25.318Z,13.80
2023-08-31T21:55:55.500Z,13.81
2023-08-31T21:58:25.671Z,13.81
2023-08-31T22:00:58.450Z,13.82
2023-08-31T22:03:28.906Z,13.81
2023-08-31T22:06:01.450Z,13.82
2023-08-31T22:08:36.439Z,13.81
2023-08-31T22:11:07.780Z,13.81
2023-08-31T22:13:38.635Z,13.81
2023-08-31T22:16:16.051Z,13.84
2023-08-31T22:18:54.391Z,13.87
2023-08-31T22:21:27.660Z,13.87
2023-08-31T22:24:00.850Z,13.86
2023-08-31T22:26:31.185Z,13.86
2023-08-31T22:29:01.736Z,13.87
2023-08-31T22:31:32.136Z,13.88
2023-08-31T22:34:03.727Z,13.89
2023-08-31T22:36:33.821Z,13.89
2023-08-31T22:39:07.169Z,13.87
2023-08-31T22:41:39.949Z,13.89
2023-08-31T22:44:10.142Z,13.89
2023-08-31T22:46:40.263Z,13.90
2023-08-31T22:49:10.373Z,13.88
2023-08-31T22:51:41.548Z,13.86
2023-08-31T22:54:14.270Z,13.83
2023-08-31T22:56:44.623Z,13.78
2023-08-31T22:59:14.828Z,13.76
2023-08-31T23:01:45.025Z,13.73
2023-08-31T23:04:15.680Z,13.73
2023-08-31T23:06:45.877Z,13.72
2023-08-31T23:09:19.053Z,13.66
2023-08-31T23:11:49.270Z,13.62
2023-08-31T23:14:19.398Z,13.60
2023-08-31T23:16:49.566Z,13.57
2023-08-31T23:19:19.797Z,13.51
2023-08-31T23:21:50.017Z,13.48
2023-08-31T23:24:22.857Z,13.44
2023-08-31T23:26:53.329Z,13.41
2023-08-31T23:29:23.523Z,13.36
2023-08-31T23:31:53.548Z,13.31
2023-08-31T23:34:26.596Z,13.26
2023-08-31T23:36:56.882Z,13.22
2023-08-31T23:39:29.621Z,13.17
2023-08-31T23:41:59.815Z,13.12
2023-08-31T23:44:29.914Z,13.08
2023-08-31T23:46:59.977Z,13.02
2023-08-31T23:49:30.301Z,12.98
2023-08-31T23:52:00.476Z,12.99
2023-08-31T23:54:35.090Z,12.98
2023-08-31T23:57:05.294Z,12.97
2023-08-31T23:59:35.478Z,12.95
